Time;durP1;ratioP1;P1;durP2;ratioP2;P2;SDS_P1;SDS_P2;PMS_P1;PMS_P2;Temp;Humidity;BMP_temperature;BMP_pressure;BME280_temperature;BME280_humidity;BME280_pressure;Samples;Min_cycle;Max_cycle;Signal;HPM_P1;HPM_P2
2023/01/03 00:00:35;;;;;;;0.70;0.70;;;11.10;99.90;;;;;;5029861;28;20204;-70
2023/01/03 00:03:00;;;;;;;1.05;0.80;;;11.30;99.90;;;;;;5032071;28;20255;-70
2023/01/03 00:05:26;;;;;;;1.00;0.70;;;11.20;99.90;;;;;;5026238;28;20255;-69
2023/01/03 00:07:52;;;;;;;1.10;1.00;;;11.20;99.90;;;;;;5028265;28;20757;-69
2023/01/03 00:10:17;;;;;;;1.50;1.00;;;11.10;99.90;;;;;;5018929;28;20497;-72
2023/01/03 00:12:43;;;;;;;1.63;1.00;;;11.50;99.90;;;;;;5021254;28;20193;-70
2023/01/03 00:15:10;;;;;;;0.90;0.80;;;11.30;99.90;;;;;;5024830;28;20276;-70
2023/01/03 00:17:35;;;;;;;1.00;0.90;;;11.20;99.90;;;;;;5018007;28;20951;-70
2023/01/03 00:20:01;;;;;;;0.90;0.80;;;11.20;99.90;;;;;;5024722;28;20273;-69
2023/01/03 00:22:30;;;;;;;1.10;1.00;;;11.20;99.90;;;;;;5022226;28;20198;-70
2023/01/03 00:24:56;;;;;;;1.50;1.10;;;10.60;99.90;;;;;;5021170;28;20224;-69
2023/01/03 00:27:21;;;;;;;1.10;1.00;;;11.10;99.90;;;;;;5028669;28;20213;-70
2023/01/03 00:29:47;;;;;;;1.80;0.90;;;11.00;99.90;;;;;;5029888;28;20205;-71
2023/01/03 00:32:13;;;;;;;1.33;0.73;;;11.20;99.90;;;;;;5019980;28;20224;-70
2023/01/03 00:34:41;;;;;;;0.70;0.70;;;11.20;99.90;;;;;;5022450;28;20190;-70
2023/01/03 00:37:07;;;;;;;0.80;0.70;;;10.80;99.90;;;;;;5028405;28;20249;-72
2023/01/03 00:39:33;;;;;;;0.70;0.60;;;10.80;99.90;;;;;;5018786;28;20197;-70
2023/01/03 00:41:58;;;;;;;1.63;0.80;;;11.10;99.90;;;;;;5026419;28;20173;-70
2023/01/03 00:44:24;;;;;;;1.47;0.90;;;11.00;99.90;;;;;;5017822;28;20209;-70
2023/01/03 00:46:49;;;;;;;2.17;0.90;;;11.10;99.90;;;;;;5022701;28;20213;-71
2023/01/03 00:49:15;;;;;;;0.90;0.90;;;11.20;99.90;;;;;;5025233;28;20666;-70
2023/01/03 00:51:42;;;;;;;0.80;0.73;;;11.10;99.90;;;;;;5022807;28;20184;-69
2023/01/03 00:54:08;;;;;;;1.67;0.98;;;11.00;99.90;;;;;;5015548;28;20184;-70
2023/01/03 00:56:37;;;;;;;0.98;0.95;;;10.70;99.90;;;;;;5027970;28;20303;-70
2023/01/03 00:59:04;;;;;;;1.50;0.90;;;11.00;99.90;;;;;;5020604;28;20189;-69
2023/01/03 01:01:34;;;;;;;1.05;0.70;;;11.10;99.90;;;;;;5025469;28;20184;-70
2023/01/03 01:04:12;;;;;;;1.52;0.85;;;11.10;99.90;;;;;;5019963;28;20278;-70
2023/01/03 01:06:41;;;;;;;1.45;1.00;;;11.00;99.90;;;;;;5023188;28;20213;-70
2023/01/03 01:09:10;;;;;;;0.90;0.80;;;10.80;99.90;;;;;;5025927;28;20177;-70
2023/01/03 01:11:35;;;;;;;1.45;0.82;;;10.90;99.90;;;;;;5017871;28;20196;-68
2023/01/03 01:14:01;;;;;;;0.80;0.70;;;10.90;99.90;;;;;;5022832;28;20177;-68
2023/01/03 01:16:30;;;;;;;1.10;1.00;;;11.00;99.90;;;;;;5022235;28;20217;-72
2023/01/03 01:18:58;;;;;;;1.20;1.10;;;10.80;99.90;;;;;;5016181;28;20259;-70
2023/01/03 01:21:29;;;;;;;0.82;0.82;;;10.80;99.90;;;;;;5027345;28;20205;-68
2023/01/03 01:23:56;;;;;;;1.00;0.90;;;10.50;99.90;;;;;;5026085;28;20186;-67
2023/01/03 01:26:23;;;;;;;0.90;0.90;;;10.90;99.90;;;;;;5022977;28;20902;-68
2023/01/03 01:28:50;;;;;;;1.65;0.80;;;10.90;99.90;;;;;;5021151;28;20556;-69
2023/01/03 01:31:19;;;;;;;0.82;0.80;;;10.90;99.90;;;;;;5023168;28;20178;-71
2023/01/03 01:33:45;;;;;;;0.90;0.80;;;11.10;99.90;;;;;;5019307;28;20702;-69
2023/01/03 01:36:18;;;;;;;1.37;0.90;;;10.70;99.90;;;;;;5021333;28;20213;-70
2023/01/03 01:38:45;;;;;;;1.02;1.02;;;10.80;99.90;;;;;;5019024;28;20957;-69
2023/01/03 01:44:36;;;;;;;0.75;0.70;;;10.80;99.90;;;;;;5026528;28;20189;-71
2023/01/03 01:46:46;;;;;;;2.35;1.15;;;10.70;99.90;;;;;;5021277;28;20745;-69
2023/01/03 01:49:17;;;;;;;2.10;1.00;;;10.50;99.90;;;;;;5018416;28;20190;-70
2023/01/03 01:51:43;;;;;;;1.20;0.80;;;10.30;99.90;;;;;;5028207;28;20625;-70
2023/01/03 01:54:09;;;;;;;1.83;1.63;;;10.40;99.90;;;;;;5023879;28;20216;-69
2023/01/03 01:56:42;;;;;;;0.98;0.90;;;10.50;99.90;;;;;;5019672;28;20200;-69
2023/01/03 01:59:10;;;;;;;1.20;1.10;;;10.60;99.90;;;;;;5023020;28;20272;-69
2023/01/03 02:01:37;;;;;;;2.70;1.00;;;10.40;99.90;;;;;;5016613;28;20190;-69
2023/01/03 02:04:07;;;;;;;1.10;1.00;;;10.50;99.90;;;;;;5014631;28;20593;-71
2023/01/03 02:06:33;;;;;;;1.05;0.95;;;10.30;99.90;;;;;;5023948;28;20226;-69
2023/01/03 02:08:59;;;;;;;1.33;0.93;;;10.20;99.90;;;;;;5024310;28;20531;-73
2023/01/03 02:13:04;;;;;;;1.00;0.90;;;9.90;99.90;;;;;;5023370;28;20269;-70
2023/01/03 02:15:06;;;;;;;0.95;0.85;;;10.40;99.90;;;;;;5014332;28;20652;-68
2023/01/03 02:17:53;;;;;;;2.90;1.10;;;10.10;99.90;;;;;;5025130;28;20213;-68
2023/01/03 02:20:22;;;;;;;1.30;1.02;;;10.30;99.90;;;;;;5018605;28;20252;-68
2023/01/03 02:22:51;;;;;;;0.90;0.77;;;10.40;99.90;;;;;;5029622;28;20254;-68
2023/01/03 02:25:32;;;;;;;0.90;0.90;;;10.50;99.90;;;;;;5021775;28;20207;-68
2023/01/03 02:28:13;;;;;;;1.60;1.00;;;10.50;99.90;;;;;;5022815;28;20546;-68
2023/01/03 02:30:43;;;;;;;4.60;1.25;;;10.40;99.90;;;;;;5024019;28;20255;-68
2023/01/03 02:33:22;;;;;;;1.50;1.20;;;10.00;99.90;;;;;;5018241;28;20645;-68
2023/01/03 02:36:04;;;;;;;1.48;1.30;;;10.10;99.90;;;;;;5037162;22;20220;-86
2023/01/03 02:38:47;;;;;;;3.17;0.90;;;10.50;99.90;;;;;;5009652;28;20181;-87
2023/01/03 02:41:31;;;;;;;1.70;1.17;;;10.20;99.90;;;;;;5015315;28;20672;-87
2023/01/03 02:44:24;;;;;;;1.33;1.08;;;10.30;99.90;;;;;;5011151;28;20641;-86
2023/01/03 02:47:08;;;;;;;1.10;0.85;;;9.90;99.90;;;;;;5009169;28;20337;-86
2023/01/03 02:49:40;;;;;;;1.00;0.90;;;9.70;99.90;;;;;;5032937;28;20188;-87
2023/01/03 02:52:12;;;;;;;1.10;1.00;;;10.10;99.90;;;;;;5017997;28;20275;-86
2023/01/03 02:54:44;;;;;;;3.20;1.05;;;9.80;99.90;;;;;;5007297;28;20192;-87
2023/01/03 02:57:14;;;;;;;1.05;0.95;;;9.90;99.90;;;;;;5010126;28;20173;-87
2023/01/03 02:59:49;;;;;;;1.10;1.00;;;9.90;99.90;;;;;;5011157;28;20168;-86
2023/01/03 03:02:18;;;;;;;1.10;1.00;;;9.30;99.90;;;;;;5024559;28;20189;-87
2023/01/03 03:04:45;;;;;;;1.00;0.90;;;9.60;99.90;;;;;;5012949;28;20187;-86
2023/01/03 03:07:21;;;;;;;0.95;0.90;;;9.30;99.90;;;;;;5027224;28;20173;-87
2023/01/03 03:15:21;;;;;;;1.73;0.90;;;9.20;99.90;;;;;;5011879;28;20290;-86
2023/01/03 03:17:50;;;;;;;2.33;0.82;;;9.20;99.90;;;;;;5021207;28;20592;-86
2023/01/03 03:26:07;;;;;;;1.40;0.90;;;9.20;99.90;;;;;;5010887;28;20339;-87
2023/01/03 03:28:36;;;;;;;0.90;0.90;;;9.00;99.90;;;;;;5010998;28;20171;-86
2023/01/03 03:31:21;;;;;;;2.00;1.35;;;8.60;99.90;;;;;;5006228;28;20282;-87
2023/01/03 03:33:59;;;;;;;2.25;1.25;;;9.20;99.90;;;;;;5010546;28;20538;-86
2023/01/03 03:36:35;;;;;;;1.85;1.20;;;9.10;99.90;;;;;;5010180;28;20223;-86
2023/01/03 03:39:02;;;;;;;2.30;1.42;;;9.00;99.90;;;;;;5034457;28;20218;-85
2023/01/03 03:47:23;;;;;;;1.25;1.05;;;9.10;99.90;;;;;;5012162;28;20195;-87
2023/01/03 03:49:52;;;;;;;1.85;1.40;;;9.10;99.90;;;;;;5027047;28;20249;-87
2023/01/03 03:52:23;;;;;;;1.88;1.27;;;8.90;99.90;;;;;;5026749;28;20184;-86
2023/01/03 03:54:56;;;;;;;2.20;2.00;;;8.80;99.90;;;;;;5012623;28;20182;-86
2023/01/03 03:57:28;;;;;;;1.90;1.73;;;9.10;99.90;;;;;;5012460;28;20190;-86
2023/01/03 04:00:04;;;;;;;4.75;1.20;;;8.70;99.90;;;;;;5015231;28;20241;-84
2023/01/03 04:02:32;;;;;;;1.40;1.25;;;9.30;99.90;;;;;;5019411;28;20179;-85
2023/01/03 04:05:03;;;;;;;1.70;1.25;;;8.90;99.90;;;;;;5014135;28;20669;-85
2023/01/03 04:07:28;;;;;;;1.80;1.02;;;9.00;99.90;;;;;;5022045;28;20657;-84
2023/01/03 04:09:54;;;;;;;2.30;1.80;;;8.70;99.90;;;;;;5010184;28;20184;-86
2023/01/03 04:12:20;;;;;;;1.60;1.20;;;8.80;99.90;;;;;;5026440;28;20266;-85
2023/01/03 04:14:45;;;;;;;2.03;1.83;;;8.90;99.90;;;;;;5014039;28;20184;-85
2023/01/03 04:17:11;;;;;;;1.50;1.40;;;8.70;99.90;;;;;;5029329;28;20190;-86
2023/01/03 04:19:36;;;;;;;1.50;1.40;;;8.40;99.90;;;;;;5014288;28;20245;-85
2023/01/03 04:22:02;;;;;;;1.43;1.33;;;8.60;99.90;;;;;;5030207;28;20285;-85
2023/01/03 04:24:27;;;;;;;1.33;1.23;;;8.80;99.90;;;;;;5012513;28;20214;-85
2023/01/03 04:26:53;;;;;;;2.40;1.10;;;8.60;99.90;;;;;;5014223;28;20215;-86
2023/01/03 04:29:18;;;;;;;2.30;1.40;;;7.70;99.90;;;;;;5013436;28;20237;-85
2023/01/03 04:31:44;;;;;;;3.23;1.33;;;8.30;99.90;;;;;;5013648;28;20171;-85
2023/01/03 04:34:09;;;;;;;1.33;1.20;;;8.10;99.90;;;;;;5012948;28;20565;-85
2023/01/03 04:36:35;;;;;;;1.63;1.10;;;8.20;99.90;;;;;;5011261;28;20698;-85
2023/01/03 04:39:00;;;;;;;1.30;1.20;;;7.70;99.90;;;;;;5016044;28;20180;-85
2023/01/03 04:41:26;;;;;;;1.43;1.33;;;8.50;99.90;;;;;;5014124;28;20195;-85
2023/01/03 04:44:00;;;;;;;2.30;1.33;;;8.00;99.90;;;;;;5011938;28;20195;-85
2023/01/03 04:46:28;;;;;;;10.60;5.10;;;7.70;99.90;;;;;;5030514;28;20218;-85
2023/01/03 04:48:53;;;;;;;2.10;1.67;;;8.10;99.90;;;;;;5016997;28;20175;-86
2023/01/03 04:51:19;;;;;;;2.57;1.37;;;8.40;99.90;;;;;;5013990;28;20711;-85
2023/01/03 04:53:44;;;;;;;3.53;1.30;;;7.90;99.90;;;;;;5012849;28;20277;-85
2023/01/03 04:56:10;;;;;;;1.50;1.30;;;8.40;99.90;;;;;;5029473;28;20227;-86
2023/01/03 04:58:35;;;;;;;2.70;1.30;;;7.90;99.90;;;;;;5013492;28;20321;-85
2023/01/03 05:01:03;;;;;;;1.37;1.27;;;8.00;99.90;;;;;;5029545;28;20550;-85
2023/01/03 05:03:29;;;;;;;1.67;1.50;;;8.40;99.90;;;;;;5014995;28;20186;-85
2023/01/03 05:05:59;;;;;;;1.95;1.30;;;7.90;99.90;;;;;;5030773;28;20234;-85
2023/01/03 05:08:25;;;;;;;1.20;1.10;;;7.60;99.90;;;;;;5017782;28;20227;-86
2023/01/03 05:10:52;;;;;;;1.30;1.20;;;7.70;99.90;;;;;;5029591;28;20191;-85
2023/01/03 05:13:18;;;;;;;1.38;1.27;;;7.80;99.90;;;;;;5029397;28;20184;-85
2023/01/03 05:15:43;;;;;;;1.73;1.63;;;7.90;99.90;;;;;;5029848;28;20789;-86
2023/01/03 05:18:09;;;;;;;4.00;1.53;;;8.10;99.90;;;;;;5030222;28;20201;-84
2023/01/03 05:26:17;;;;;;;2.10;1.40;;;7.80;99.90;;;;;;5019576;28;20289;-85
2023/01/03 05:28:45;;;;;;;1.85;1.25;;;7.80;99.90;;;;;;5029514;28;20183;-85
2023/01/03 05:31:11;;;;;;;2.58;1.20;;;8.30;99.90;;;;;;5011531;28;20199;-86
2023/01/03 05:33:38;;;;;;;2.67;1.40;;;7.60;99.90;;;;;;5012440;28;20613;-84
2023/01/03 05:36:04;;;;;;;2.00;1.25;;;8.20;99.90;;;;;;5011025;28;20474;-86
2023/01/03 05:38:30;;;;;;;1.25;1.15;;;7.80;99.90;;;;;;5023857;28;20187;-85
2023/01/03 05:40:55;;;;;;;2.60;1.53;;;8.20;99.90;;;;;;5026879;28;20237;-85
2023/01/03 05:43:21;;;;;;;1.37;1.27;;;7.90;99.90;;;;;;5029201;28;20194;-85
2023/01/03 05:45:51;;;;;;;1.37;1.27;;;7.60;99.90;;;;;;5010382;28;20306;-86
2023/01/03 05:48:17;;;;;;;1.60;1.50;;;8.10;99.90;;;;;;5012743;28;20837;-86
2023/01/03 05:50:44;;;;;;;1.67;1.42;;;7.60;99.90;;;;;;5012497;28;20188;-85
2023/01/03 05:53:09;;;;;;;1.70;1.40;;;7.70;99.90;;;;;;5013270;28;20683;-84
2023/01/03 05:55:36;;;;;;;1.50;1.30;;;7.60;99.90;;;;;;5014979;28;20207;-85
2023/01/03 05:58:02;;;;;;;1.70;1.60;;;7.10;99.90;;;;;;5024513;28;20171;-85
2023/01/03 06:00:28;;;;;;;7.63;4.87;;;8.10;99.90;;;;;;5034026;28;20224;-85
2023/01/03 06:02:53;;;;;;;1.60;1.50;;;7.80;99.90;;;;;;5019678;28;20521;-85
2023/01/03 06:05:19;;;;;;;1.70;1.43;;;7.80;99.90;;;;;;5015116;28;20481;-85
2023/01/03 06:07:44;;;;;;;2.60;1.40;;;8.10;99.90;;;;;;5012514;28;20238;-85
2023/01/03 06:10:10;;;;;;;1.80;1.60;;;7.70;99.90;;;;;;5026319;28;20191;-85
2023/01/03 06:12:35;;;;;;;1.67;1.40;;;7.90;99.90;;;;;;5012887;28;20270;-85
2023/01/03 06:15:01;;;;;;;4.70;1.30;;;7.50;99.90;;;;;;5016101;28;20644;-85
2023/01/03 06:20:11;;;;;;;1.50;1.40;;;7.30;99.90;;;;;;5009967;28;20189;-83
2023/01/03 06:22:36;;;;;;;1.70;1.60;;;7.30;99.90;;;;;;5011756;28;20187;-85
2023/01/03 06:25:02;;;;;;;2.53;1.50;;;7.20;99.90;;;;;;5024087;28;20544;-85
2023/01/03 06:27:28;;;;;;;2.07;1.67;;;7.40;99.90;;;;;;5011669;28;20179;-84
2023/01/03 06:29:54;;;;;;;2.08;1.85;;;7.70;99.90;;;;;;5011708;28;20587;-84
2023/01/03 06:32:19;;;;;;;2.33;1.77;;;7.50;99.90;;;;;;4997845;28;20266;-84
2023/01/03 06:34:45;;;;;;;4.50;2.20;;;;;;;;;;5011476;28;20218;-85
2023/01/03 06:37:11;;;;;;;1.83;1.63;;;7.40;99.90;;;;;;5005762;28;20270;-85
2023/01/03 06:39:36;;;;;;;4.23;1.83;;;7.70;99.90;;;;;;5008863;28;20485;-84
2023/01/03 06:42:38;;;;;;;1.60;1.50;;;7.20;99.90;;;;;;5021877;28;20215;-85
2023/01/03 06:53:11;;;;;;;1.77;1.67;;;7.70;99.90;;;;;;5008075;28;20266;-85
2023/01/03 06:53:12;;;;;;;2.70;2.03;;;7.10;99.90;;;;;;5012738;28;20772;-85
2023/01/03 06:55:42;;;;;;;1.80;1.70;;;7.00;99.90;;;;;;5028737;28;20211;-85
2023/01/03 06:58:08;;;;;;;4.32;2.72;;;7.20;99.90;;;;;;5007970;28;20187;-85
2023/01/03 07:00:35;;;;;;;3.03;2.00;;;7.40;99.90;;;;;;5012136;28;20187;-86
2023/01/03 07:03:01;;;;;;;2.47;2.00;;;7.40;99.90;;;;;;5006990;28;20275;-87
2023/01/03 07:05:26;;;;;;;3.23;2.03;;;7.50;99.90;;;;;;5006930;28;20282;-87
2023/01/03 07:07:52;;;;;;;1.90;1.80;;;7.10;99.90;;;;;;5008677;28;20377;-87
2023/01/03 07:10:18;;;;;;;2.20;2.00;;;7.20;99.90;;;;;;5009448;28;20787;-87
2023/01/03 07:15:27;;;;;;;2.90;2.60;;;7.20;99.90;;;;;;5007079;28;20698;-82
2023/01/03 07:17:54;;;;;;;2.30;2.10;;;7.10;99.90;;;;;;5014122;28;20186;-86
2023/01/03 07:20:20;;;;;;;3.05;2.15;;;7.10;99.90;;;;;;5019607;28;20187;-84
2023/01/03 07:22:45;;;;;;;2.87;2.57;;;7.10;99.90;;;;;;5013084;28;20220;-82
2023/01/03 07:25:11;;;;;;;4.77;2.50;;;6.80;99.90;;;;;;5002458;28;20830;-84
2023/01/03 07:27:36;;;;;;;4.13;2.53;;;6.90;99.90;;;;;;5008675;28;20194;-88
2023/01/03 07:30:02;;;;;;;6.53;2.47;;;7.10;99.90;;;;;;5019949;28;20186;-88
2023/01/03 07:32:28;;;;;;;4.70;2.13;;;6.90;99.90;;;;;;5031369;28;20186;-87
2023/01/03 07:34:53;;;;;;;3.07;2.20;;;7.40;99.90;;;;;;5020486;28;20803;-88
2023/01/03 07:37:19;;;;;;;3.20;2.40;;;7.20;99.90;;;;;;5012744;28;20191;-87
2023/01/03 07:39:44;;;;;;;2.10;1.90;;;6.90;99.90;;;;;;5030408;28;20199;-89
2023/01/03 07:44:54;;;;;;;2.25;2.03;;;7.00;99.90;;;;;;5012640;28;20186;-89
2023/01/03 07:47:20;;;;;;;6.90;2.57;;;6.30;99.90;;;;;;5010640;28;20191;-90
2023/01/03 07:49:45;;;;;;;4.00;2.77;;;7.20;99.90;;;;;;5016077;28;20423;-90
2023/01/03 07:52:11;;;;;;;3.50;2.20;;;7.40;99.90;;;;;;5028302;28;20214;-89
2023/01/03 07:54:36;;;;;;;3.20;2.50;;;7.10;99.90;;;;;;5019945;28;20186;-90
2023/01/03 07:57:02;;;;;;;3.93;2.10;;;6.90;99.90;;;;;;5018252;28;20203;-90
2023/01/03 07:59:27;;;;;;;2.70;2.20;;;7.20;99.90;;;;;;5014475;28;20183;-90
2023/01/03 08:01:53;;;;;;;2.47;2.03;;;;;;;;;;5029432;28;20254;-90
2023/01/03 08:04:19;;;;;;;5.97;4.70;;;7.10;99.90;;;;;;5008839;28;20206;-90
2023/01/03 08:06:47;;;;;;;3.77;2.73;;;7.10;99.90;;;;;;5016012;28;20984;-93
2023/01/03 08:14:41;;;;;;;3.90;2.40;;;7.10;99.90;;;;;;5014642;28;20190;-89
2023/01/03 08:17:07;;;;;;;3.07;2.60;;;7.50;99.90;;;;;;5013098;28;20206;-88
2023/01/03 08:19:32;;;;;;;3.53;2.87;;;7.70;99.90;;;;;;5015337;28;20191;-87
2023/01/03 08:21:58;;;;;;;4.43;2.93;;;8.40;99.90;;;;;;5012145;28;20222;-86
2023/01/03 08:24:23;;;;;;;3.87;2.97;;;7.30;99.90;;;;;;5008603;28;20187;-87
2023/01/03 08:26:49;;;;;;;5.43;2.60;;;7.50;99.90;;;;;;5012575;28;20285;-89
2023/01/03 08:29:16;;;;;;;3.43;2.60;;;7.80;99.90;;;;;;5009697;28;20210;-88
2023/01/03 08:31:46;;;;;;;3.60;2.55;;;7.50;99.90;;;;;;5014551;28;20275;-87
2023/01/03 08:34:12;;;;;;;4.18;2.85;;;8.00;99.90;;;;;;5027861;28;20211;-88
2023/01/03 08:36:43;;;;;;;3.15;2.40;;;7.50;99.90;;;;;;5011951;28;20210;-87
2023/01/03 08:39:14;;;;;;;3.50;3.20;;;8.00;99.90;;;;;;5028549;28;20417;-87
2023/01/03 08:41:47;;;;;;;6.03;2.45;;;8.20;99.90;;;;;;5013615;28;20194;-87
2023/01/03 08:44:13;;;;;;;4.28;3.22;;;7.90;99.90;;;;;;5029116;28;20198;-87
2023/01/03 08:46:44;;;;;;;3.28;2.90;;;7.70;99.90;;;;;;5011194;28;20214;-87
2023/01/03 08:49:10;;;;;;;3.13;2.67;;;7.80;99.90;;;;;;5025200;28;20636;-87
2023/01/03 08:51:36;;;;;;;3.28;2.60;;;8.20;99.90;;;;;;5011175;28;20186;-86
2023/01/03 08:54:01;;;;;;;3.13;2.83;;;8.20;99.90;;;;;;5028955;28;20709;-87
2023/01/03 08:56:27;;;;;;;3.10;2.80;;;8.10;99.90;;;;;;5010276;28;20221;-87
2023/01/03 08:58:56;;;;;;;5.13;3.30;;;7.90;99.90;;;;;;5022167;28;20190;-84
2023/01/03 09:01:22;;;;;;;4.38;2.90;;;8.10;99.90;;;;;;5007242;28;20523;-83
2023/01/03 09:03:48;;;;;;;6.30;4.18;;;8.20;99.90;;;;;;5029863;28;20196;-85
2023/01/03 09:06:13;;;;;;;3.33;3.00;;;9.20;99.90;;;;;;5025436;28;20818;-85
2023/01/03 09:08:39;;;;;;;6.30;2.90;;;8.10;99.90;;;;;;5029797;28;20183;-84
2023/01/03 09:11:06;;;;;;;4.23;2.43;;;8.30;99.90;;;;;;5028315;28;20759;-83
2023/01/03 09:13:32;;;;;;;3.50;3.20;;;8.40;99.90;;;;;;5026945;28;20680;-83
2023/01/03 09:16:02;;;;;;;25.77;23.65;;;8.50;99.90;;;;;;5011032;28;20207;-82
2023/01/03 09:18:28;;;;;;;4.45;3.20;;;8.50;99.90;;;;;;5010228;28;20191;-84
2023/01/03 09:20:53;;;;;;;6.40;2.50;;;8.80;99.90;;;;;;5011432;28;20175;-83
2023/01/03 09:23:19;;;;;;;3.23;2.90;;;9.10;99.90;;;;;;5026945;28;20176;-82
2023/01/03 09:25:45;;;;;;;5.10;3.50;;;9.00;99.90;;;;;;5010507;28;20215;-84
2023/01/03 09:28:11;;;;;;;8.88;3.30;;;9.40;99.90;;;;;;5010108;28;21998;-88
2023/01/03 09:30:37;;;;;;;5.55;3.33;;;9.20;99.90;;;;;;5013217;28;20215;-85
2023/01/03 09:33:03;;;;;;;4.17;3.13;;;8.60;99.90;;;;;;5027875;28;20173;-85
2023/01/03 09:35:30;;;;;;;4.45;3.40;;;9.40;99.90;;;;;;5009236;28;20290;-86
2023/01/03 09:37:55;;;;;;;3.90;3.30;;;9.10;99.90;;;;;;5010551;28;20874;-86
2023/01/03 09:40:21;;;;;;;4.63;3.07;;;9.30;99.90;;;;;;5008298;28;20282;-85
2023/01/03 09:45:35;;;;;;;5.05;3.05;;;9.70;99.90;;;;;;5012147;28;20437;-85
2023/01/03 09:48:02;;;;;;;7.30;3.65;;;9.70;99.90;;;;;;5011096;28;20183;-87
2023/01/03 09:50:31;;;;;;;3.42;3.13;;;9.80;99.90;;;;;;5014964;28;20200;-87
2023/01/03 10:04:47;;;;;;;4.90;4.38;;;10.00;99.90;;;;;;5014335;28;20252;-86
2023/01/03 10:07:41;;;;;;;8.15;3.80;;;10.50;99.90;;;;;;5009094;28;20201;-88
2023/01/03 10:10:21;;;;;;;3.30;3.00;;;10.60;99.90;;;;;;5025044;28;20182;-84
2023/01/03 10:13:13;;;;;;;5.30;4.75;;;10.70;99.90;;;;;;5009656;28;20266;-86
2023/01/03 10:15:55;;;;;;;3.40;3.10;;;10.60;99.90;;;;;;5013708;28;20299;-86
2023/01/03 10:18:44;;;;;;;4.10;3.50;;;10.80;99.90;;;;;;5011419;28;20178;-90
2023/01/03 10:21:36;;;;;;;5.38;3.42;;;10.90;99.90;;;;;;5026639;28;20182;-88
2023/01/03 10:24:15;;;;;;;5.35;3.75;;;11.00;99.90;;;;;;5011924;28;20213;-88
2023/01/03 10:26:40;;;;;;;4.60;3.65;;;10.90;99.90;;;;;;5006155;28;20217;-89
2023/01/03 10:29:07;;;;;;;6.03;3.60;;;10.80;99.90;;;;;;5028565;28;20193;-89
2023/01/03 10:32:01;;;;;;;5.55;3.75;;;10.80;99.90;;;;;;5010411;28;20196;-88
2023/01/03 10:34:27;;;;;;;3.97;3.33;;;11.10;99.90;;;;;;5011560;28;20190;-84
2023/01/03 10:36:52;;;;;;;4.27;3.87;;;10.80;99.90;;;;;;5011185;28;20705;-87
2023/01/03 10:39:29;;;;;;;7.27;4.10;;;11.20;99.90;;;;;;5015206;28;20670;-88
2023/01/03 10:41:58;;;;;;;4.85;3.88;;;11.30;99.90;;;;;;5030710;28;20192;-88
2023/01/03 10:44:30;;;;;;;6.22;5.40;;;11.40;99.90;;;;;;5023796;28;20206;-86
2023/01/03 10:46:58;;;;;;;4.40;3.45;;;11.90;99.90;;;;;;5027136;28;20285;-88
2023/01/03 10:49:27;;;;;;;4.20;3.80;;;12.00;99.90;;;;;;5029691;28;20194;-89
2023/01/03 10:52:11;;;;;;;6.10;3.25;;;12.70;99.90;;;;;;5022848;28;20295;-90
2023/01/03 10:54:39;;;;;;;4.43;3.30;;;13.70;99.90;;;;;;5008816;28;20669;-85
2023/01/03 10:57:05;;;;;;;3.72;3.20;;;14.40;98.40;;;;;;5012935;28;20661;-88
2023/01/03 10:59:32;;;;;;;4.03;3.00;;;15.50;96.70;;;;;;5009576;28;20220;-89
2023/01/03 11:02:13;;;;;;;4.82;3.88;;;16.40;94.20;;;;;;5012883;28;20179;-90
2023/01/03 11:04:39;;;;;;;3.88;3.45;;;16.20;92.80;;;;;;5030770;28;20179;-89
2023/01/03 11:07:08;;;;;;;3.95;3.22;;;14.90;93.10;;;;;;5026161;28;20304;-87
2023/01/03 11:09:42;;;;;;;5.80;3.55;;;14.70;94.30;;;;;;5022418;28;20195;-87
2023/01/03 11:12:32;;;;;;;4.63;3.28;;;15.60;94.40;;;;;;5028497;28;20667;-87
2023/01/03 11:14:59;;;;;;;4.28;3.30;;;17.00;92.30;;;;;;5012550;28;20336;-88
2023/01/03 11:17:27;;;;;;;4.28;3.50;;;15.50;91.50;;;;;;5011241;28;20191;-87
2023/01/03 11:19:54;;;;;;;2.83;2.63;;;16.20;92.40;;;;;;5012345;28;20567;-87
2023/01/03 11:22:34;;;;;;;3.20;2.90;;;16.80;91.80;;;;;;5013828;28;20175;-88
2023/01/03 11:25:21;;;;;;;5.40;2.30;;;17.30;90.50;;;;;;5031035;28;20217;-87
2023/01/03 11:28:23;;;;;;;4.95;2.78;;;17.30;87.60;;;;;;5012590;28;20176;-88
2023/01/03 11:31:10;;;;;;;1.80;1.70;;;17.10;87.70;;;;;;5032293;28;20171;-88
2023/01/03 11:34:01;;;;;;;1.60;1.33;;;16.60;89.40;;;;;;5011758;28;20178;-88
2023/01/03 11:36:42;;;;;;;2.53;1.85;;;16.50;89.00;;;;;;5001248;28;20257;-86
2023/01/03 11:39:27;;;;;;;4.05;1.40;;;17.20;87.60;;;;;;5028244;28;20176;-87
2023/01/03 11:41:53;;;;;;;2.22;1.85;;;17.20;85.80;;;;;;5015711;28;20210;-88
2023/01/03 11:44:41;;;;;;;3.30;1.70;;;17.20;85.30;;;;;;5032988;28;20181;-88
2023/01/03 11:47:35;;;;;;;2.17;1.42;;;18.00;84.50;;;;;;5015522;28;20206;-88
2023/01/03 11:50:18;;;;;;;3.88;2.60;;;17.40;83.50;;;;;;5015102;28;20175;-89
2023/01/03 11:53:00;;;;;;;2.25;1.85;;;16.50;86.90;;;;;;5013527;28;20218;-88
2023/01/03 11:55:41;;;;;;;1.50;1.30;;;16.00;87.20;;;;;;5030159;28;20211;-88
2023/01/03 11:58:21;;;;;;;3.83;1.63;;;15.70;87.90;;;;;;5027412;28;20175;-88
2023/01/03 12:01:06;;;;;;;3.10;1.30;;;15.00;90.20;;;;;;5028512;28;20183;-89
2023/01/03 12:03:38;;;;;;;2.10;1.35;;;15.00;90.20;;;;;;5018219;28;20550;-89
2023/01/03 12:06:25;;;;;;;2.85;1.08;;;15.10;90.80;;;;;;5033488;28;20278;-88
2023/01/03 12:09:02;;;;;;;1.50;1.27;;;14.90;90.20;;;;;;5015753;28;20262;-88
2023/01/03 12:12:06;;;;;;;2.65;0.82;;;14.80;90.20;;;;;;5031391;28;20181;-88
2023/01/03 12:14:59;;;;;;;16.30;6.07;;;15.20;89.00;;;;;;5027876;28;20205;-88
2023/01/03 12:17:43;;;;;;;2.95;1.42;;;15.40;90.20;;;;;;5033539;28;20274;-88
2023/01/03 12:20:26;;;;;;;4.10;0.70;;;14.80;90.50;;;;;;5030159;28;20175;-88
2023/01/03 12:23:29;;;;;;;1.77;1.10;;;14.50;89.30;;;;;;5016769;28;20176;-88
2023/01/03 12:25:59;;;;;;;1.25;1.10;;;14.60;89.80;;;;;;5030903;28;20206;-88
2023/01/03 12:28:32;;;;;;;1.42;0.90;;;14.60;88.80;;;;;;5012461;28;20183;-88
2023/01/03 12:31:08;;;;;;;2.10;0.75;;;14.40;88.50;;;;;;5014605;28;20805;-89
2023/01/03 12:33:57;;;;;;;1.75;0.85;;;14.10;88.80;;;;;;5011162;28;20178;-88
2023/01/03 12:36:50;;;;;;;2.28;1.20;;;14.20;89.80;;;;;;5017254;28;20223;-88
2023/01/03 12:39:41;;;;;;;1.88;0.98;;;14.40;88.90;;;;;;5016416;28;20187;-90
2023/01/03 12:42:28;;;;;;;1.15;1.00;;;14.20;89.60;;;;;;5021408;28;20183;-88
2023/01/03 12:45:08;;;;;;;6.05;1.75;;;14.10;90.30;;;;;;5035450;28;20215;-88
2023/01/03 12:47:48;;;;;;;1.20;1.00;;;13.90;90.40;;;;;;5029895;28;20210;-89
2023/01/03 12:50:24;;;;;;;2.58;1.40;;;13.60;90.30;;;;;;5013532;28;20171;-89
2023/01/03 12:52:58;;;;;;;2.20;1.30;;;13.50;90.80;;;;;;5011929;28;20209;-89
2023/01/03 12:55:32;;;;;;;1.27;1.00;;;13.40;91.10;;;;;;5015276;28;20221;-89
2023/01/03 12:58:24;;;;;;;1.17;1.08;;;13.50;91.40;;;;;;5034435;28;20336;-89
2023/01/03 13:01:14;;;;;;;1.42;0.90;;;13.70;91.70;;;;;;5015211;28;20179;-88
2023/01/03 13:03:46;;;;;;;3.50;0.80;;;13.40;91.40;;;;;;5016697;28;20214;-89
2023/01/03 13:06:23;;;;;;;2.05;1.20;;;13.30;90.90;;;;;;5017090;28;20218;-89
2023/01/03 13:08:52;;;;;;;1.45;0.90;;;13.40;91.00;;;;;;5027822;28;20221;-89
2023/01/03 13:11:34;;;;;;;2.05;0.85;;;13.40;91.30;;;;;;5030724;28;20195;-89
2023/01/03 13:14:14;;;;;;;1.50;0.90;;;13.20;91.30;;;;;;5018866;28;20666;-92
2023/01/03 13:16:43;;;;;;;2.22;0.80;;;13.10;91.50;;;;;;5006273;28;20577;-87
2023/01/03 13:19:21;;;;;;;1.98;0.80;;;13.40;91.90;;;;;;5013046;28;20272;-90
2023/01/03 13:22:01;;;;;;;1.00;0.88;;;12.60;91.60;;;;;;5013175;28;20195;-89
2023/01/03 13:24:43;;;;;;;2.08;0.90;;;13.20;92.10;;;;;;5010876;28;20201;-88
2023/01/03 13:27:18;;;;;;;0.80;0.68;;;12.90;92.10;;;;;;5012732;28;20215;-87
2023/01/03 13:29:57;;;;;;;0.95;0.80;;;12.60;92.30;;;;;;5016691;28;20185;-88
2023/01/03 13:32:22;;;;;;;0.70;0.70;;;13.00;92.20;;;;;;5014789;28;20179;-87
2023/01/03 13:35:14;;;;;;;1.33;0.90;;;13.00;92.00;;;;;;5030482;28;20216;-84
2023/01/03 13:37:49;;;;;;;0.80;0.70;;;12.90;92.30;;;;;;5007909;28;20267;-87
2023/01/03 13:40:29;;;;;;;1.10;1.00;;;13.40;92.40;;;;;;5027642;28;20179;-87
2023/01/03 13:43:07;;;;;;;2.03;1.00;;;12.80;92.00;;;;;;5033997;28;20183;-86
2023/01/03 13:45:33;;;;;;;0.80;0.70;;;13.50;92.50;;;;;;5029000;28;20214;-86
2023/01/03 13:48:15;;;;;;;0.80;0.70;;;13.40;92.50;;;;;;5013716;28;20179;-86
2023/01/03 13:51:03;;;;;;;1.15;1.02;;;13.20;92.40;;;;;;5010771;28;20211;-86
2023/01/03 13:53:35;;;;;;;0.98;0.80;;;13.00;92.80;;;;;;5029661;28;20183;-87
2023/01/03 13:56:13;;;;;;;2.13;1.00;;;13.00;92.40;;;;;;5031220;28;20215;-86
2023/01/03 13:58:45;;;;;;;2.45;0.80;;;13.20;92.90;;;;;;5017043;28;20210;-85
2023/01/03 14:01:49;;;;;;;1.15;1.02;;;13.10;92.30;;;;;;5017001;28;20175;-86
2023/01/03 14:04:26;;;;;;;1.45;1.02;;;12.70;92.40;;;;;;5018949;28;20670;-86
2023/01/03 14:07:31;;;;;;;1.30;1.20;;;12.80;92.20;;;;;;5019852;28;20301;-85
2023/01/03 14:10:16;;;;;;;0.98;0.82;;;13.00;92.90;;;;;;5030926;28;20183;-85
2023/01/03 14:13:05;;;;;;;0.80;0.80;;;12.80;92.20;;;;;;5017651;28;20194;-86
2023/01/03 14:15:32;;;;;;;1.38;0.90;;;12.70;91.90;;;;;;5034599;28;20207;-85